Terminal Aerodrome Forecast
Issued by NWS Wakefield, VA

Home | Current Version | Previous Version | Text Only | Print | Product List | Glossary On
Versions: 1 2 3 4 5 6 7 8 9 10 11 12 13
000
FTUS41 KAKQ 170500
TAFORF
TAF
KORF 170521Z 1706/1806 02009KT P6SM BKN050
     FM170800 05009KT P6SM OVC035
     FM171500 07010KT P6SM BKN040=

USA.gov is the U.S. government's official web portal to all federal, state and local government web resources and services.